Time;durP1;ratioP1;P1;durP2;ratioP2;P2;SDS_P1;SDS_P2;PMS_P1;PMS_P2;Temp;Humidity;BMP_temperature;BMP_pressure;BME280_temperature;BME280_humidity;BME280_pressure;Samples;Min_cycle;Max_cycle;Signal;HPM_P1;HPM_P2
2022/08/23 00:01:53;;;;;;;11.85;4.17;;;;;;;20.10;96.45;98844.53;1769002;81;21552;-51
2022/08/23 00:04:24;;;;;;;8.43;3.98;;;;;;;20.08;96.50;98846.52;1769074;81;21026;-50
2022/08/23 00:06:52;;;;;;;12.13;4.28;;;;;;;20.03;96.38;98844.34;1769075;81;21000;-52
2022/08/23 00:09:20;;;;;;;9.08;4.12;;;;;;;20.09;95.18;98848.21;1757484;80;21488;-48
2022/08/23 00:12:07;;;;;;;8.65;4.53;;;;;;;20.11;94.99;98855.56;1756071;82;20980;-56
2022/08/23 00:14:37;;;;;;;10.53;4.62;;;;;;;20.10;94.61;98853.39;1724649;82;20979;-53
2022/08/23 00:17:05;;;;;;;6.00;3.72;;;;;;;20.06;95.79;98855.19;1756080;82;20995;-49
2022/08/23 00:19:31;;;;;;;9.28;4.47;;;;;;;20.10;94.84;98860.55;1756053;82;21011;-51
2022/08/23 00:21:57;;;;;;;5.42;4.08;;;;;;;20.12;94.60;98858.08;1756305;82;21452;-52
2022/08/23 00:24:25;;;;;;;15.48;4.72;;;;;;;20.13;94.11;98860.24;1756167;82;21516;-48
2022/08/23 00:27:06;;;;;;;;;;;;;;;20.11;94.76;98855.56;1758758;82;21035;-55
2022/08/23 00:29:40;;;;;;;13.08;5.12;;;;;;;20.02;95.98;98855.16;1756115;82;20146;-46
2022/08/23 00:32:11;;;;;;;14.10;5.03;;;;;;;20.03;95.19;98858.16;1755710;82;21520;-44
2022/08/23 00:34:39;;;;;;;12.03;5.20;;;;;;;20.06;94.79;98860.02;1756196;82;20972;-46
2022/08/23 00:37:08;;;;;;;9.88;4.95;;;;;;;20.09;94.07;98862.89;1756173;82;21009;-57
2022/08/23 00:39:34;;;;;;;13.35;4.70;;;;;;;20.08;94.45;98862.53;1756096;82;20987;-48
2022/08/23 00:47:41;;;;;;;5.90;4.25;;;;;;;20.09;94.48;98888.25;1756186;82;21035;-51
2022/08/23 00:50:31;;;;;;;9.43;4.67;;;;;;;20.11;94.25;98893.77;1752991;81;21006;-52
2022/08/23 00:53:17;;;;;;;14.28;5.50;;;;;;;20.12;94.67;98897.29;1724551;83;21006;-50
2022/08/23 00:55:48;;;;;;;9.10;5.05;;;;;;;20.17;94.07;98904.31;1723278;83;21529;-50
2022/08/23 00:58:18;;;;;;;7.53;4.60;;;;;;;20.21;94.18;98901.69;1724670;83;21055;-58
2022/08/23 01:00:46;;;;;;;9.25;4.65;;;;;;;20.22;93.81;98900.68;1724621;83;21031;-47
2022/08/23 01:03:13;;;;;;;11.93;4.75;;;;;;;20.23;94.21;98902.84;1724563;83;21571;-50
2022/08/23 01:05:55;;;;;;;14.78;5.05;;;;;;;20.23;93.99;98901.03;1724680;83;21015;-50
2022/08/23 01:08:25;;;;;;;9.83;5.55;;;;;;;20.24;93.93;98906.70;1724592;83;21063;-49
2022/08/23 01:11:07;;;;;;;7.53;4.50;;;;;;;20.28;94.04;98909.89;1724552;83;20983;-49
2022/08/23 01:13:38;;;;;;;8.60;4.60;;;;;;;20.32;93.74;98912.62;1724583;83;21635;-44
2022/08/23 01:16:09;;;;;;;9.10;5.70;;;;;;;20.33;93.63;98902.25;1724610;82;20959;-45
2022/08/23 01:18:37;;;;;;;14.50;5.08;;;;;;;20.30;93.40;98906.09;1724588;81;21031;-52
2022/08/23 01:21:22;;;;;;;13.45;5.37;;;;;;;20.33;93.49;98911.09;1724615;82;21075;-44
2022/08/23 01:23:52;;;;;;;10.03;4.75;;;;;;;20.33;93.55;98916.44;1724605;83;21042;-46
2022/08/23 01:26:21;;;;;;;10.72;5.17;;;;;;;20.35;93.44;98925.63;1724473;83;20971;-50
2022/08/23 01:28:48;;;;;;;12.98;4.95;;;;;;;20.37;93.39;98917.47;1724686;83;20972;-51
2022/08/23 01:31:17;;;;;;;9.63;5.10;;;;;;;20.38;93.27;98916.48;1724857;83;21460;-52
2022/08/23 01:33:46;;;;;;;12.33;5.40;;;;;;;20.35;92.78;98913.62;1724596;83;21030;-56
2022/08/23 01:36:14;;;;;;;16.87;5.97;;;;;;;20.29;93.21;98905.73;1702035;83;20984;-58
2022/08/23 01:38:40;;;;;;;10.08;5.53;;;;;;;20.24;93.90;98897.86;1724606;83;20968;-53
2022/08/23 01:41:06;;;;;;;16.05;5.70;;;;;;;20.25;93.55;98896.37;1724541;83;21089;-48
2022/08/23 01:43:32;;;;;;;11.30;5.37;;;;;;;20.26;93.08;98891.35;1724604;82;21038;-51
2022/08/23 01:46:13;;;;;;;17.30;5.72;;;;;;;20.25;93.07;98885.69;1724709;83;21658;-46
2022/08/23 01:48:39;;;;;;;15.18;5.80;;;;;;;20.22;93.79;98885.16;1724571;83;21011;-41
2022/08/23 01:51:06;;;;;;;9.13;5.97;;;;;;;20.23;93.46;98883.68;1724545;81;21031;-51
2022/08/23 01:53:33;;;;;;;15.28;6.65;;;;;;;20.27;93.51;98877.53;1724625;83;20999;-55
2022/08/23 01:56:00;;;;;;;13.03;6.13;;;;;;;20.29;93.43;98882.21;1724878;83;21031;-55
2022/08/23 01:58:29;;;;;;;13.95;6.22;;;;;;;20.29;93.43;98882.21;1724585;83;21705;-51
2022/08/23 02:00:55;;;;;;;17.75;6.20;;;;;;;20.30;93.48;98879.86;1702009;83;21505;-55
2022/08/23 02:03:21;;;;;;;19.75;5.95;;;;;;;20.29;93.41;98883.04;1724748;83;20980;-57
2022/08/23 02:05:47;;;;;;;10.95;5.67;;;;;;;20.28;93.50;98885.86;1724389;83;21121;-48
2022/08/23 02:10:58;;;;;;;16.27;6.53;;;;;;;20.30;93.25;98887.87;1724582;83;21102;-47
2022/08/23 02:13:24;;;;;;;14.85;6.42;;;;;;;20.30;93.23;98898.55;1724784;83;20971;-42
2022/08/23 02:15:51;;;;;;;10.88;6.08;;;;;;;20.31;93.84;98906.92;1724535;83;20999;-50
2022/08/23 02:18:18;;;;;;;;;;;;;;;20.32;93.82;98905.44;1727165;83;21484;-49
2022/08/23 02:20:46;;;;;;;18.77;7.10;;;;;;;20.36;93.66;98907.80;1724566;83;20441;-46
2022/08/23 02:23:12;;;;;;;15.95;7.30;;;;;;;20.40;93.40;98908.64;1724455;82;20991;-45
2022/08/23 02:25:39;;;;;;;16.12;6.65;;;;;;;20.42;93.34;98920.01;1724430;82;20998;-47
2022/08/23 02:28:05;;;;;;;19.85;6.72;;;;;;;20.45;93.24;98931.72;1724739;83;21560;-49
2022/08/23 02:30:31;;;;;;;12.93;6.95;;;;;;;20.47;93.36;98931.57;1724642;83;21011;-56
2022/08/23 02:32:57;;;;;;;12.43;5.87;;;;;;;20.48;93.49;98923.41;1724491;83;20979;-43
2022/08/23 02:35:24;;;;;;;15.05;6.10;;;;;;;20.50;93.69;98931.23;1724531;83;20996;-44
2022/08/23 02:37:51;;;;;;;18.35;6.65;;;;;;;20.51;93.18;98930.25;1724638;83;21042;-56
2022/08/23 02:42:52;;;;;;;17.20;6.05;;;;;;;20.54;93.06;98925.94;1742672;79;21046;-43
2022/08/23 02:45:18;;;;;;;13.88;6.50;;;;;;;20.57;93.04;98924.77;1750182;82;21594;-45
2022/08/23 02:47:45;;;;;;;12.25;5.62;;;;;;;20.60;93.00;98937.83;1747072;82;21067;-57
2022/08/23 02:50:11;;;;;;;10.15;5.42;;;;;;;20.61;93.03;98927.49;1744607;81;21006;-47
2022/08/23 02:52:37;;;;;;;18.15;7.03;;;;;;;20.61;93.37;98930.16;1744813;82;21854;-54
2022/08/23 02:55:04;;;;;;;18.17;6.53;;;;;;;20.60;93.42;98929.30;1744608;82;20990;-52
2022/08/23 02:57:30;;;;;;;15.03;6.78;;;;;;;20.61;93.10;98929.69;1744734;82;20955;-52
2022/08/23 02:59:56;;;;;;;13.43;6.20;;;;;;;20.63;93.11;98934.37;1744640;81;21014;-50
2022/08/23 03:02:22;;;;;;;14.43;5.97;;;;;;;20.66;92.68;98927.86;1744672;81;21007;-54
2022/08/23 03:04:48;;;;;;;18.02;6.33;;;;;;;20.65;92.49;98920.35;1744722;81;21508;-46
2022/08/23 03:07:14;;;;;;;16.75;6.45;;;;;;;20.60;92.46;98919.95;1744567;81;21035;-54
2022/08/23 03:09:40;;;;;;;24.37;6.67;;;;;;;20.56;92.57;98913.26;1744695;82;20963;-51
2022/08/23 03:12:06;;;;;;;16.27;5.87;;;;;;;20.44;92.91;98893.15;1744686;82;21500;-55
2022/08/23 03:14:33;;;;;;;12.80;6.20;;;;;;;20.44;92.91;98893.15;1744891;82;21015;-51
2022/08/23 03:16:59;;;;;;;13.13;6.67;;;;;;;20.42;92.74;98901.31;1744711;82;21468;-51
2022/08/23 03:19:25;;;;;;;13.25;6.05;;;;;;;20.42;92.65;98898.64;1744609;82;20991;-51
2022/08/23 03:21:51;;;;;;;16.85;6.60;;;;;;;20.35;93.84;98886.91;1744621;82;20995;-44
2022/08/23 03:24:17;;;;;;;15.72;7.40;;;;;;;20.31;94.01;98893.06;1746840;80;20981;-45
2022/08/23 03:26:44;;;;;;;13.50;6.33;;;;;;;20.24;95.00;98895.19;1768102;81;21462;-47
2022/08/23 03:29:12;;;;;;;14.00;6.40;;;;;;;20.17;96.00;98895.47;1768301;81;20956;-50
2022/08/23 03:31:38;;;;;;;13.35;6.33;;;;;;;20.16;95.86;98901.82;1768041;80;21456;-56
2022/08/23 03:34:04;;;;;;;15.35;6.35;;;;;;;20.08;96.24;98906.58;1768388;81;20995;-49
2022/08/23 03:36:31;;;;;;;17.75;6.80;;;;;;;20.07;96.28;98915.09;1768415;81;21007;-49
2022/08/23 03:38:57;;;;;;;17.55;7.37;;;;;;;19.99;99.38;98930.20;1768123;81;21026;-51
2022/08/23 03:41:23;;;;;;;17.55;7.17;;;;;;;19.99;98.18;98928.36;1768820;80;21472;-51
2022/08/23 03:43:51;;;;;;;16.02;7.83;;;;;;;20.00;97.95;98923.88;1776786;80;20998;-51
2022/08/23 03:46:24;;;;;;;15.00;7.20;;;;;;;19.97;99.51;98924.17;1776500;81;21014;-53
2022/08/23 03:48:57;;;;;;;14.30;7.30;;;;;;;19.99;98.95;98911.52;1776775;80;20991;-45
2022/08/23 03:51:23;;;;;;;18.00;6.95;;;;;;;19.86;100.00;98910.06;1776831;80;20956;-47
2022/08/23 03:53:50;;;;;;;24.33;7.53;;;;;;;19.81;100.00;98913.72;1777013;80;21018;-55
2022/08/23 03:56:29;;;;;;;13.98;7.92;;;;;;;19.78;100.00;98910.02;1776724;80;21026;-55
2022/08/23 03:58:58;;;;;;;22.13;8.03;;;;;;;19.71;100.00;98914.25;1776730;80;21015;-52
2022/08/23 04:01:23;;;;;;;17.98;8.03;;;;;;;19.78;100.00;98911.34;1776769;80;21456;-53
2022/08/23 04:03:49;;;;;;;22.05;8.68;;;;;;;19.71;100.00;98906.25;1776949;80;21026;-50
2022/08/23 04:06:16;;;;;;;17.60;7.85;;;;;;;19.67;100.00;98907.55;1776855;81;21425;-48
2022/08/23 04:08:44;;;;;;;19.07;8.48;;;;;;;19.68;100.00;98905.20;1776867;80;20987;-53
2022/08/23 04:11:12;;;;;;;17.27;8.75;;;;;;;19.56;100.00;98900.61;1776655;80;21033;-54
2022/08/23 04:13:39;;;;;;;20.57;8.85;;;;;;;19.47;100.00;98897.02;1777057;81;20943;-55
2022/08/23 04:16:06;;;;;;;18.05;9.03;;;;;;;19.55;100.00;98901.59;1776713;81;20986;-46
2022/08/23 04:18:32;;;;;;;17.62;8.93;;;;;;;19.60;100.00;98897.14;1776866;81;21039;-50
2022/08/23 04:21:03;;;;;;;22.13;9.30;;;;;;;19.63;100.00;98895.48;1776870;81;20991;-52
2022/08/23 04:23:29;;;;;;;16.70;9.08;;;;;;;19.63;100.00;98895.48;1776755;80;20998;-56
2022/08/23 04:25:55;;;;;;;14.40;9.28;;;;;;;19.61;100.00;98898.80;1776729;80;20955;-48
2022/08/23 04:28:21;;;;;;;16.57;9.23;;;;;;;19.67;100.00;98899.55;1776806;81;21500;-49
2022/08/23 04:30:49;;;;;;;10.95;8.48;;;;;;;19.72;100.00;98893.27;1777101;80;20990;-43
2022/08/23 04:33:16;;;;;;;11.45;9.33;;;;;;;19.68;100.00;98894.54;1776729;80;20987;-43
2022/08/23 04:35:43;;;;;;;17.73;9.10;;;;;;;19.67;100.00;98891.55;1776702;81;21365;-53
2022/08/23 04:38:10;;;;;;;14.73;9.73;;;;;;;19.65;100.00;98898.36;1776832;81;20994;-51
2022/08/23 04:43:20;;;;;;;21.33;9.60;;;;;;;19.67;100.00;98895.55;1774257;81;21039;-50
2022/08/23 04:45:47;;;;;;;15.98;9.28;;;;;;;19.72;100.00;98899.94;1773693;80;21156;-46
2022/08/23 04:48:12;;;;;;;18.23;9.73;;;;;;;19.76;100.00;98909.33;1773985;81;20984;-56
2022/08/23 04:50:41;;;;;;;16.87;9.90;;;;;;;19.77;100.00;98909.66;1773680;81;21469;-48
2022/08/23 04:53:07;;;;;;;21.42;10.25;;;;;;;19.76;100.00;98901.33;1773775;81;21074;-49
2022/08/23 04:55:33;;;;;;;15.00;9.83;;;;;;;19.77;100.00;98899.48;1774025;80;21492;-50
2022/08/23 04:57:59;;;;;;;16.37;9.70;;;;;;;19.78;100.00;98904.67;1773736;80;20995;-51
2022/08/23 05:00:24;;;;;;;18.75;9.48;;;;;;;19.74;100.00;98905.98;1773762;81;20991;-49
2022/08/23 05:02:51;;;;;;;18.30;9.83;;;;;;;19.79;100.00;98913.52;1773702;81;21520;-48
2022/08/23 05:05:19;;;;;;;18.48;10.35;;;;;;;19.81;100.00;98920.39;1773805;80;20968;-44
2022/08/23 05:07:45;;;;;;;17.62;9.98;;;;;;;19.88;100.00;98923.26;1773666;81;21074;-56
2022/08/23 05:10:14;;;;;;;15.05;8.60;;;;;;;19.94;100.00;98927.50;1773666;80;20968;-48
2022/08/23 05:12:40;;;;;;;12.85;8.53;;;;;;;20.00;99.79;98918.54;1773673;80;21042;-51
2022/08/23 05:15:11;;;;;;;11.75;8.80;;;;;;;19.96;99.60;98922.52;1773663;81;21047;-47
2022/08/23 05:17:37;;;;;;;11.28;8.50;;;;;;;19.96;99.32;98922.52;1773680;80;20999;-47
2022/08/23 05:20:06;;;;;;;10.25;8.65;;;;;;;19.99;99.51;98930.20;1773748;81;21026;-53
2022/08/23 05:22:34;;;;;;;11.25;7.60;;;;;;;20.03;99.29;98925.74;1773664;80;20991;-50
2022/08/23 05:25:00;;;;;;;11.95;8.63;;;;;;;20.05;98.97;98923.75;1773727;80;20990;-48
2022/08/23 05:27:26;;;;;;;9.63;8.40;;;;;;;20.06;98.70;98936.59;1773631;81;20971;-41
2022/08/23 05:29:53;;;;;;;14.50;8.63;;;;;;;20.07;98.62;98940.95;1773647;81;20983;-49
2022/08/23 05:32:20;;;;;;;11.40;8.75;;;;;;;20.10;98.57;98936.63;1773782;81;21532;-46
2022/08/23 05:34:46;;;;;;;13.68;8.50;;;;;;;20.16;98.40;98928.52;1774109;80;21038;-48
2022/08/23 05:37:12;;;;;;;15.13;9.38;;;;;;;20.18;97.98;98931.36;1773649;81;20987;-52
2022/08/23 05:39:38;;;;;;;12.73;8.75;;;;;;;20.18;98.14;98928.69;1773934;81;21026;-47
2022/08/23 05:42:07;;;;;;;12.45;9.58;;;;;;;20.22;98.55;98927.88;1772813;81;21015;-51
2022/08/23 05:44:33;;;;;;;12.35;9.23;;;;;;;20.24;98.58;98926.72;1768224;80;21485;-46
2022/08/23 05:46:59;;;;;;;12.37;9.48;;;;;;;20.29;98.31;98931.10;1768132;80;20984;-54
2022/08/23 05:49:25;;;;;;;13.62;9.95;;;;;;;20.35;97.74;98929.64;1768162;81;21028;-48
2022/08/23 05:51:51;;;;;;;12.73;9.38;;;;;;;20.38;97.70;98934.67;1768185;81;21023;-51
2022/08/23 05:54:16;;;;;;;22.30;9.53;;;;;;;20.43;97.59;98926.17;1768206;80;20987;-51
2022/08/23 05:56:43;;;;;;;18.90;9.50;;;;;;;20.42;97.49;98934.70;1768205;80;20960;-45
2022/08/23 05:59:14;;;;;;;13.53;9.23;;;;;;;20.45;97.62;98933.05;1768344;81;21023;-55
2022/08/23 06:01:40;;;;;;;13.62;9.45;;;;;;;20.48;97.58;98933.23;1768161;80;21069;-47
2022/08/23 06:04:10;;;;;;;19.73;8.98;;;;;;;20.50;97.26;98944.11;1768442;81;21535;-53
2022/08/23 06:06:38;;;;;;;18.62;9.30;;;;;;;20.53;97.16;98947.78;1768188;81;20998;-55
2022/08/23 06:09:07;;;;;;;15.15;10.38;;;;;;;20.58;97.33;98947.83;1768049;81;20979;-47
2022/08/23 06:11:33;;;;;;;20.15;10.28;;;;;;;20.63;96.88;98945.06;1767181;80;20999;-49
2022/08/23 06:14:03;;;;;;;17.92;9.58;;;;;;;20.66;96.94;98949.23;1766928;80;21027;-42
2022/08/23 06:16:34;;;;;;;17.82;9.43;;;;;;;20.69;96.74;98942.25;1749793;81;20988;-50
2022/08/23 06:19:02;;;;;;;14.05;8.65;;;;;;;20.72;96.68;98937.94;1738202;81;21588;-57
2022/08/23 06:21:29;;;;;;;13.88;8.55;;;;;;;20.75;96.91;98931.42;1728482;83;21000;-56
2022/08/23 06:23:55;;;;;;;23.57;9.10;;;;;;;20.79;96.85;98924.75;1728732;82;21047;-52
2022/08/23 06:26:30;;;;;;;15.55;8.98;;;;;;;20.86;96.57;98928.47;1728939;82;20989;-47
2022/08/23 06:28:59;;;;;;;15.23;8.70;;;;;;;20.90;96.73;98935.16;1728252;82;21033;-49
2022/08/23 06:31:45;;;;;;;14.03;8.45;;;;;;;20.97;96.48;98931.36;1727976;83;20968;-48
2022/08/23 06:34:23;;;;;;;15.75;8.25;;;;;;;21.04;96.41;98945.25;1727659;82;21131;-49
2022/08/23 06:36:53;;;;;;;10.28;7.40;;;;;;;21.11;96.28;98949.98;1727775;83;21023;-48
2022/08/23 06:39:23;;;;;;;13.00;8.05;;;;;;;21.15;95.59;98955.33;1727691;82;21031;-46
2022/08/23 06:41:50;;;;;;;16.37;7.90;;;;;;;21.20;95.28;98954.36;1733973;81;21006;-42
2022/08/23 06:44:18;;;;;;;19.48;9.70;;;;;;;21.24;95.01;98957.03;1752040;82;21082;-49
2022/08/23 06:46:46;;;;;;;14.90;8.10;;;;;;;21.27;94.90;98955.39;1753057;81;21476;-49
2022/08/23 06:49:12;;;;;;;13.30;8.15;;;;;;;21.31;94.77;98960.74;1753000;81;20955;-50
2022/08/23 06:51:45;;;;;;;9.93;7.60;;;;;;;21.36;94.70;98958.42;1753009;81;21524;-48
2022/08/23 06:54:15;;;;;;;10.40;8.03;;;;;;;21.38;94.43;98959.09;1733213;82;21535;-45
2022/08/23 06:56:42;;;;;;;11.80;8.03;;;;;;;21.41;94.21;98956.59;1753106;81;20986;-51
2022/08/23 06:59:08;;;;;;;19.90;8.18;;;;;;;21.37;94.09;98952.06;1753110;81;21010;-48
2022/08/23 07:01:42;;;;;;;17.17;7.25;;;;;;;21.38;94.18;98956.93;1752358;81;21018;-44
2022/08/23 07:04:11;;;;;;;13.05;7.95;;;;;;;21.41;94.18;98964.61;1752798;81;21102;-45
2022/08/23 07:06:37;;;;;;;11.48;7.75;;;;;;;21.43;94.31;98963.97;1753032;81;21456;-43
2022/08/23 07:09:04;;;;;;;11.68;7.97;;;;;;;21.50;94.33;98966.84;1752539;81;21872;-46
2022/08/23 07:11:31;;;;;;;12.35;7.45;;;;;;;21.54;94.28;98972.20;1753255;81;20990;-45
2022/08/23 07:14:03;;;;;;;10.87;7.47;;;;;;;21.58;94.94;98971.73;1752683;82;21003;-46
2022/08/23 07:16:35;;;;;;;11.00;6.97;;;;;;;21.65;94.52;98970.58;1751683;81;20991;-45
2022/08/23 07:19:02;;;;;;;14.25;7.25;;;;;;;21.70;94.22;98972.23;1753020;81;20987;-48
2022/08/23 07:21:28;;;;;;;15.03;8.93;;;;;;;21.71;94.10;98973.93;1752853;81;21022;-51
2022/08/23 07:23:55;;;;;;;15.03;8.60;;;;;;;21.74;93.81;98976.77;1751747;81;21530;-55
2022/08/23 07:26:22;;;;;;;11.33;7.95;;;;;;;21.82;93.77;98984.83;1751652;81;21698;-50
2022/08/23 07:28:49;;;;;;;25.08;17.55;;;;;;;21.85;93.91;98986.67;1752399;81;21010;-46
2022/08/23 07:31:25;;;;;;;18.75;8.53;;;;;;;21.88;93.83;98992.69;1753314;81;20990;-50
2022/08/23 07:33:50;;;;;;;40.43;9.88;;;;;;;21.90;93.37;98993.36;1752615;81;21007;-42
2022/08/23 07:36:20;;;;;;;16.90;8.88;;;;;;;21.93;93.24;98991.19;1753042;81;21607;-52
2022/08/23 07:38:48;;;;;;;15.55;9.38;;;;;;;21.98;93.08;98990.20;1752406;81;21594;-55
2022/08/23 07:41:16;;;;;;;18.52;9.53;;;;;;;22.01;93.10;98993.03;1753215;82;20983;-50
2022/08/23 07:43:43;;;;;;;18.10;9.48;;;;;;;22.03;92.84;98995.91;1752948;81;21018;-49
2022/08/23 07:46:10;;;;;;;16.75;8.85;;;;;;;22.04;92.90;98994.87;1752020;81;21067;-50
2022/08/23 07:48:37;;;;;;;18.12;9.33;;;;;;;22.06;93.10;98992.05;1752332;81;21019;-50
2022/08/23 07:51:07;;;;;;;15.03;10.18;;;;;;;22.10;92.69;98994.72;1752244;81;21006;-57
2022/08/23 07:53:33;;;;;;;25.55;10.45;;;;;;;22.15;92.95;98988.37;1753172;81;21130;-44
2022/08/23 07:56:04;;;;;;;15.20;10.53;;;;;;;22.21;92.79;98989.53;1753053;81;21011;-43
2022/08/23 07:58:31;;;;;;;18.95;10.88;;;;;;;22.26;92.71;98993.06;1753243;81;21015;-43
2022/08/23 08:00:56;;;;;;;20.48;10.55;;;;;;;22.36;92.93;98997.80;1753500;81;21558;-44
2022/08/23 08:03:22;;;;;;;21.35;11.28;;;;;;;22.46;92.50;99001.13;1734125;82;20951;-42
2022/08/23 08:05:48;;;;;;;15.25;10.60;;;;;;;22.50;92.07;98998.95;1752472;81;21031;-42
2022/08/23 08:08:14;;;;;;;16.65;10.75;;;;;;;22.58;91.76;98996.27;1752771;81;21027;-43
2022/08/23 08:10:42;;;;;;;21.95;10.20;;;;;;;22.68;91.62;98996.08;1752964;81;21007;-40
2022/08/23 08:13:10;;;;;;;19.60;10.28;;;;;;;22.74;91.14;98992.70;1751963;81;21042;-43
2022/08/23 08:15:40;;;;;;;19.40;9.58;;;;;;;22.79;90.98;98994.37;1751830;81;21026;-39
2022/08/23 08:18:06;;;;;;;20.32;10.30;;;;;;;22.84;90.73;98993.88;1752239;81;21042;-44
2022/08/23 08:20:35;;;;;;;16.52;10.00;;;;;;;22.95;90.76;99004.23;1751805;81;21010;-43
2022/08/23 08:23:01;;;;;;;13.53;8.98;;;;;;;23.04;90.63;99005.92;1751553;81;21034;-41
2022/08/23 08:25:29;;;;;;;16.65;9.00;;;;;;;23.11;89.96;99011.44;1752295;81;21528;-44
2022/08/23 08:27:54;;;;;;;15.18;9.28;;;;;;;23.15;89.31;99020.81;1751533;81;21023;-43
2022/08/23 08:30:20;;;;;;;20.15;9.78;;;;;;;23.20;89.62;99019.80;1752003;81;21038;-45
2022/08/23 08:32:46;;;;;;;16.37;9.10;;;;;;;23.24;89.27;99021.11;1752762;81;20979;-43
2022/08/23 08:35:12;;;;;;;21.23;10.63;;;;;;;23.34;89.22;99022.27;1753136;81;21030;-45
2022/08/23 08:37:38;;;;;;;20.43;9.60;;;;;;;23.36;89.03;99030.47;1753126;81;20983;-40
2022/08/23 08:40:05;;;;;;;17.10;11.10;;;;;;;23.44;88.81;99028.76;1752533;81;21081;-42
2022/08/23 08:42:54;;;;;;;28.75;12.50;;;;;;;23.47;88.33;99023.88;1734049;82;20982;-40
2022/08/23 08:45:30;;;;;;;21.57;9.98;;;;;;;23.51;88.20;99023.86;1750387;81;21143;-44
2022/08/23 08:48:08;;;;;;;20.27;9.88;;;;;;;23.60;87.79;99021.98;1752771;81;21030;-43
2022/08/23 08:50:39;;;;;;;18.70;8.85;;;;;;;23.62;87.60;99033.88;1751938;81;20983;-44
2022/08/23 08:53:13;;;;;;;19.40;8.05;;;;;;;23.69;87.57;99033.00;1753096;81;20947;-42
2022/08/23 08:55:50;;;;;;;16.30;9.45;;;;;;;23.75;87.38;99034.97;1746759;82;21039;-40
2022/08/23 08:58:31;;;;;;;16.17;8.43;;;;;;;23.86;87.24;99035.63;1752490;81;21057;-44
2022/08/23 09:00:57;;;;;;;16.10;7.92;;;;;;;23.94;86.77;99036.42;1751725;81;21015;-39
2022/08/23 09:03:27;;;;;;;19.48;8.20;;;;;;;23.97;86.50;99043.28;1753306;81;21445;-41
2022/08/23 09:06:24;;;;;;;17.05;8.40;;;;;;;23.97;86.50;99043.28;1753047;81;21515;-42
2022/08/23 09:09:16;;;;;;;11.10;7.87;;;;;;;23.94;86.00;99040.97;1742250;81;21018;-43
2022/08/23 09:12:37;;;;;;;17.82;7.47;;;;;;;23.92;85.81;99041.63;1752540;81;20994;-40
2022/08/23 09:15:29;;;;;;;14.63;7.67;;;;;;;23.90;85.90;99049.02;1752101;81;21002;-43
2022/08/23 09:18:09;;;;;;;13.08;6.90;;;;;;;23.89;85.68;99049.53;1752114;81;21026;-43
2022/08/23 09:20:37;;;;;;;13.58;6.53;;;;;;;23.84;84.34;99045.71;1753150;81;21023;-42
2022/08/23 09:23:11;;;;;;;18.57;7.47;;;;;;;23.87;85.02;99044.85;1753134;82;21504;-47
2022/08/23 09:25:38;;;;;;;14.85;7.37;;;;;;;23.92;84.66;99042.97;1749964;81;21022;-41
2022/08/23 09:28:04;;;;;;;14.15;6.60;;;;;;;24.01;84.82;99049.13;1751946;81;22241;-40
2022/08/23 09:30:51;;;;;;;11.90;6.35;;;;;;;24.10;85.06;99044.03;1753246;81;21902;-42
2022/08/23 09:33:25;;;;;;;16.95;6.87;;;;;;;24.24;84.91;99042.44;1750599;81;21600;-42
2022/08/23 09:36:15;;;;;;;11.97;5.90;;;;;;;24.31;83.81;99050.11;1752796;81;21053;-39
2022/08/23 09:39:00;;;;;;;15.80;7.00;;;;;;;24.38;83.39;99043.00;1752181;81;21039;-38
2022/08/23 09:41:37;;;;;;;13.48;6.58;;;;;;;24.53;83.35;99043.91;1751275;81;21014;-44
2022/08/23 09:44:08;;;;;;;12.65;7.08;;;;;;;24.67;83.03;99048.18;1747202;82;21219;-44
2022/08/23 09:46:40;;;;;;;9.50;5.97;;;;;;;24.83;81.67;99060.13;1743712;82;20982;-44
2022/08/23 09:49:26;;;;;;;18.02;6.83;;;;;;;25.07;81.62;99048.80;1743916;82;21015;-44
2022/08/23 09:51:56;;;;;;;10.70;6.20;;;;;;;25.19;80.99;99048.64;1731050;82;21022;-46
2022/08/23 09:54:35;;;;;;;12.20;6.35;;;;;;;25.32;80.25;99045.85;1745087;82;21556;-43
2022/08/23 09:57:04;;;;;;;12.98;5.97;;;;;;;25.42;79.52;99052.62;1744008;82;21014;-45
2022/08/23 09:59:46;;;;;;;12.53;6.58;;;;;;;25.26;78.83;99054.98;1757607;80;20942;-44
2022/08/23 10:02:32;;;;;;;10.35;5.62;;;;;;;25.29;78.84;99049.25;1763532;81;21030;-44
2022/08/23 10:05:22;;;;;;;11.20;5.92;;;;;;;25.40;78.40;99048.47;1762270;81;21013;-44
2022/08/23 10:08:00;;;;;;;14.90;5.92;;;;;;;25.40;77.93;99055.19;1762948;81;21029;-44
2022/08/23 10:10:52;;;;;;;10.03;5.42;;;;;;;25.34;77.76;99067.55;1762550;81;21310;-40
2022/08/23 10:13:19;;;;;;;9.25;5.87;;;;;;;25.21;77.09;99076.72;1762269;81;20997;-42
2022/08/23 10:15:59;;;;;;;12.75;6.03;;;;;;;25.05;76.88;99072.34;1763411;80;21002;-41
2022/08/23 10:18:37;;;;;;;9.45;5.90;;;;;;;24.93;77.33;99068.45;1763386;81;20982;-42
2022/08/23 10:21:08;;;;;;;9.50;6.58;;;;;;;24.81;77.70;99070.72;1762894;81;21445;-41
2022/08/23 10:24:22;;;;;;;17.23;6.97;;;;;;;24.73;78.37;99071.64;1762758;81;21628;-42
2022/08/23 10:30:17;;;;;;;17.00;6.95;;;;;;;24.59;79.95;99086.70;1763534;81;21050;-40
2022/08/23 10:33:08;;;;;;;17.62;7.62;;;;;;;24.49;81.11;99095.50;1763008;81;21076;-43
2022/08/23 10:36:09;;;;;;;17.30;7.92;;;;;;;24.39;81.95;99098.92;1762809;81;21001;-40
2022/08/23 10:38:45;;;;;;;17.52;7.90;;;;;;;24.29;83.52;99104.55;1762878;80;21561;-43
2022/08/23 10:41:50;;;;;;;13.20;7.50;;;;;;;24.20;85.14;99110.47;1762698;81;20998;-42
2022/08/23 10:44:36;;;;;;;16.73;7.50;;;;;;;24.13;85.56;99103.61;1769895;81;21004;-42
2022/08/23 10:47:26;;;;;;;15.63;7.83;;;;;;;24.08;85.14;99097.93;1776130;81;21007;-43
2022/08/23 10:49:56;;;;;;;16.85;8.20;;;;;;;24.03;85.74;99099.47;1775461;80;21018;-44
2022/08/23 10:52:31;;;;;;;15.43;8.48;;;;;;;24.01;86.38;99100.16;1775332;81;21023;-43
2022/08/23 10:55:05;;;;;;;18.60;8.50;;;;;;;24.02;86.10;99095.13;1776345;79;21694;-45
2022/08/23 10:57:40;;;;;;;14.15;8.50;;;;;;;24.01;87.16;99095.62;1750957;80;21007;-43
2022/08/23 11:00:20;;;;;;;19.23;7.90;;;;;;;24.01;86.93;99087.56;1776530;81;20994;-41
2022/08/23 11:03:01;;;;;;;14.03;7.53;;;;;;;24.05;87.37;99082.19;1776580;79;20999;-42
2022/08/23 11:05:31;;;;;;;16.55;8.03;;;;;;;24.04;87.51;99092.59;1774610;80;22055;-40
2022/08/23 11:08:11;;;;;;;17.07;8.40;;;;;;;23.98;87.12;99100.02;1774541;80;21035;-44
2022/08/23 11:10:47;;;;;;;14.98;7.45;;;;;;;23.97;87.14;99090.28;1770720;80;21034;-41
2022/08/23 11:13:23;;;;;;;15.32;7.87;;;;;;;23.92;87.19;99083.25;1776556;81;21035;-41
2022/08/23 11:16:10;;;;;;;16.95;8.15;;;;;;;23.88;88.25;99085.96;1775818;79;20979;-43
2022/08/23 11:18:41;;;;;;;14.87;8.75;;;;;;;23.87;88.36;99084.30;1775914;80;21081;-41
2022/08/23 11:21:18;;;;;;;16.50;8.05;;;;;;;23.96;87.76;99073.84;1775036;81;20963;-41
2022/08/23 11:24:02;;;;;;;19.45;8.13;;;;;;;24.01;88.11;99076.81;1776547;80;20944;-39
2022/08/23 11:26:40;;;;;;;16.10;8.28;;;;;;;24.08;87.83;99082.33;1775992;80;21074;-43
2022/08/23 11:29:14;;;;;;;20.45;9.35;;;;;;;24.09;88.47;99084.84;1775432;80;21008;-42
2022/08/23 11:31:47;;;;;;;18.87;8.65;;;;;;;24.05;89.50;99067.41;1775739;80;21529;-40
2022/08/23 11:34:44;;;;;;;24.37;8.73;;;;;;;23.75;89.41;99063.16;1776313;80;21003;-43
2022/08/23 11:37:25;;;;;;;13.18;7.85;;;;;;;23.38;91.29;99062.50;1774933;81;21073;-42
2022/08/23 11:40:03;;;;;;;16.85;8.23;;;;;;;23.39;90.96;99062.81;1775715;81;21030;-43
2022/08/23 11:42:40;;;;;;;18.32;8.45;;;;;;;23.26;92.26;99067.89;1776555;80;20995;-44
2022/08/23 11:45:36;;;;;;;15.38;7.53;;;;;;;23.15;93.99;99065.06;1773047;80;21009;-43
2022/08/23 11:48:26;;;;;;;18.12;7.53;;;;;;;23.21;93.66;99066.22;1772463;80;21051;-43
2022/08/23 11:51:37;;;;;;;15.75;7.65;;;;;;;23.31;92.47;99062.34;1768283;81;21066;-44
2022/08/23 11:54:17;;;;;;;10.60;6.78;;;;;;;23.36;92.21;99055.95;1772457;81;21813;-42
2022/08/23 11:57:05;;;;;;;9.90;6.47;;;;;;;23.18;92.55;99060.70;1774167;79;20964;-42
2022/08/23 12:00:27;;;;;;;13.98;6.78;;;;;;;23.29;92.57;99063.02;1772164;81;21039;-41
2022/08/23 12:03:08;;;;;;;16.05;6.35;;;;;;;23.49;92.46;99067.99;1773062;81;21042;-41